Time;durP1;ratioP1;P1;durP2;ratioP2;P2;SDS_P1;SDS_P2;PMS_P1;PMS_P2;Temp;Humidity;BMP_temperature;BMP_pressure;BME280_temperature;BME280_humidity;BME280_pressure;Samples;Min_cycle;Max_cycle;Signal;HPM_P1;HPM_P2
2021/05/18 00:02:19;;;;;;;3.40;3.30;;;;;;;9.17;79.74;100682.03;4415247;32;20303;-73
2021/05/18 00:04:45;;;;;;;4.22;4.03;;;;;;;9.17;78.92;100674.19;4411012;32;20091;-71
2021/05/18 00:07:15;;;;;;;4.35;4.15;;;;;;;9.22;79.69;100680.97;4426132;32;20903;-72
2021/05/18 00:12:25;;;;;;;4.18;3.97;;;;;;;9.29;79.68;100675.38;4435855;32;20082;-72
2021/05/18 00:14:50;;;;;;;3.60;3.50;;;;;;;9.33;79.42;100678.69;4418305;32;20492;-72
2021/05/18 00:17:15;;;;;;;3.70;3.60;;;;;;;9.33;78.22;100681.31;4428429;32;20170;-72
2021/05/18 00:19:41;;;;;;;4.70;4.50;;;;;;;9.32;78.65;100682.22;4411841;32;20070;-70
2021/05/18 00:22:06;;;;;;;4.03;3.83;;;;;;;9.31;78.52;100678.75;4429147;32;20069;-71
2021/05/18 00:24:32;;;;;;;4.20;4.00;;;;;;;9.33;78.10;100678.69;4417449;32;20072;-73
2021/05/18 00:27:02;;;;;;;3.80;3.70;;;;;;;9.14;77.71;100649.91;4421736;32;20096;-72
2021/05/18 00:29:27;;;;;;;3.42;3.33;;;;;;;9.32;78.31;100679.59;4413509;32;20069;-72
2021/05/18 00:31:53;;;;;;;3.60;3.50;;;;;;;9.35;78.29;100679.47;4413355;32;20067;-71
2021/05/18 00:34:18;;;;;;;3.50;3.40;;;;;;;9.35;78.41;100671.63;4417682;32;20069;-71
2021/05/18 00:36:43;;;;;;;3.80;3.60;;;;;;;9.08;77.83;100626.63;4425698;32;20087;-72
2021/05/18 00:39:09;;;;;;;3.95;3.75;;;;;;;9.10;77.64;100632.63;4417906;32;20091;-72
2021/05/18 00:41:34;;;;;;;3.67;3.58;;;;;;;9.37;78.39;100672.41;4421903;32;20633;-72
2021/05/18 00:43:59;;;;;;;4.40;4.20;;;;;;;9.37;78.93;100673.22;4431631;32;20092;-72
2021/05/18 00:46:25;;;;;;;3.42;3.30;;;;;;;9.38;77.82;100668.84;4416982;32;20078;-71
2021/05/18 00:48:56;;;;;;;3.55;3.45;;;;;;;9.39;78.71;100674.00;4418711;32;20137;-73
2021/05/18 00:51:22;;;;;;;4.05;3.85;;;;;;;8.62;78.21;100542.41;4418541;32;20078;-72
2021/05/18 00:53:47;;;;;;;3.80;3.70;;;;;;;9.37;78.67;100665.38;4414972;32;20459;-71
2021/05/18 00:56:34;;;;;;;4.43;4.22;;;;;;;9.43;78.74;100672.09;4414631;32;20082;-72
2021/05/18 00:59:00;;;;;;;3.92;3.75;;;;;;;9.46;78.60;100677.22;4421451;32;20103;-74
2021/05/18 01:01:25;;;;;;;4.30;4.10;;;;;;;9.48;80.24;100677.09;4415063;32;20059;-73
2021/05/18 01:03:52;;;;;;;3.45;3.35;;;;;;;9.48;80.42;100682.34;4419146;32;20083;-73
2021/05/18 01:06:19;;;;;;;4.20;4.00;;;;;;;9.45;81.68;100679.88;4416409;32;20087;-72
2021/05/18 01:08:45;;;;;;;3.53;3.42;;;;;;;9.23;82.18;100646.84;4423912;32;20105;-74
2021/05/18 01:11:11;;;;;;;3.50;3.40;;;;;;;9.41;81.71;100673.94;4419308;32;20143;-72
2021/05/18 01:13:36;;;;;;;3.90;3.70;;;;;;;9.39;82.65;100683.66;4410925;32;20061;-73
2021/05/18 01:16:03;;;;;;;3.47;3.37;;;;;;;9.38;83.60;100688.03;4433815;32;20064;-72
2021/05/18 01:18:43;;;;;;;3.92;3.80;;;;;;;9.38;83.16;100685.44;4416172;32;20706;-74
2021/05/18 01:21:09;;;;;;;3.60;3.50;;;;;;;9.34;83.71;100680.38;4430282;32;20197;-74
2021/05/18 01:23:34;;;;;;;3.50;3.40;;;;;;;9.35;84.16;100692.56;4402747;32;20987;-72
2021/05/18 01:26:00;;;;;;;3.40;3.30;;;;;;;9.36;84.48;100694.25;4433692;32;20068;-72
2021/05/18 01:28:26;;;;;;;4.05;3.85;;;;;;;9.35;83.82;100690.78;4412438;32;20067;-72
2021/05/18 01:30:51;;;;;;;3.80;3.60;;;;;;;9.35;84.80;100700.44;4423968;32;20097;-73
2021/05/18 01:33:17;;;;;;;3.85;3.70;;;;;;;9.31;84.66;100691.84;4426730;32;20137;-74
2021/05/18 01:35:42;;;;;;;3.45;3.35;;;;;;;9.12;85.50;100668.31;4405909;32;20178;-73
2021/05/18 01:38:11;;;;;;;3.95;3.75;;;;;;;9.30;85.75;100689.31;4407478;32;20068;-72
2021/05/18 01:43:37;;;;;;;3.60;3.50;;;;;;;9.31;85.94;100691.84;4427461;32;20075;-72
2021/05/18 01:46:02;;;;;;;3.50;3.40;;;;;;;9.30;84.95;100698.03;4411254;32;20072;-73
2021/05/18 01:48:33;;;;;;;3.50;3.40;;;;;;;9.31;85.94;100693.63;4401195;32;20064;-74
2021/05/18 01:50:59;;;;;;;3.45;3.35;;;;;;;9.35;85.41;100695.19;4412355;32;20134;-74
2021/05/18 01:53:24;;;;;;;4.28;4.07;;;;;;;9.36;85.42;100704.72;4411463;32;20068;-74
2021/05/18 01:58:30;;;;;;;4.53;4.32;;;;;;;9.37;86.84;100709.91;4426662;32;20061;-73
2021/05/18 02:00:55;;;;;;;3.60;3.50;;;;;;;9.37;86.87;100709.06;4415977;32;20102;-73
2021/05/18 02:03:20;;;;;;;3.47;3.37;;;;;;;9.35;86.52;100710.91;4412839;32;20161;-73
2021/05/18 02:05:46;;;;;;;3.50;3.40;;;;;;;9.36;86.60;100713.47;4416944;32;20064;-73
2021/05/18 02:08:13;;;;;;;3.50;3.40;;;;;;;9.28;85.96;100709.47;4413484;32;20060;-72
2021/05/18 02:10:39;;;;;;;3.62;3.53;;;;;;;9.29;87.22;100708.56;4429226;32;20115;-73
2021/05/18 02:13:04;;;;;;;3.65;3.55;;;;;;;9.25;85.43;100713.09;4416940;32;20068;-72
2021/05/18 02:18:27;;;;;;;3.60;3.50;;;;;;;9.25;86.14;100718.34;4430808;32;20170;-75
2021/05/18 02:26:06;;;;;;;3.80;3.70;;;;;;;9.17;84.39;100710.81;4425617;32;20173;-73
2021/05/18 02:28:31;;;;;;;4.00;3.80;;;;;;;9.15;84.58;100709.22;4424058;32;20703;-72
2021/05/18 02:30:57;;;;;;;3.47;3.37;;;;;;;9.17;84.72;100710.81;4429184;32;20154;-73
2021/05/18 02:33:22;;;;;;;3.87;3.67;;;;;;;9.19;85.42;100713.38;4429200;32;20060;-74
2021/05/18 02:35:48;;;;;;;3.60;3.50;;;;;;;9.19;84.47;100714.22;4412475;32;20076;-72
2021/05/18 02:38:13;;;;;;;3.50;3.40;;;;;;;9.20;85.54;100720.34;4420970;32;20175;-72
2021/05/18 02:40:39;;;;;;;3.60;3.50;;;;;;;9.23;85.43;100716.72;4415107;32;20600;-71
2021/05/18 02:43:05;;;;;;;3.47;3.37;;;;;;;9.21;84.90;100714.16;4418770;32;20731;-72
2021/05/18 02:50:40;;;;;;;4.25;4.05;;;;;;;9.19;85.90;100716.84;4432720;32;20631;-73
2021/05/18 02:53:05;;;;;;;3.60;3.50;;;;;;;9.20;85.41;100712.47;4428915;32;20072;-72
2021/05/18 02:55:44;;;;;;;3.60;3.50;;;;;;;9.22;85.38;100717.63;4414695;32;20079;-73
2021/05/18 02:58:11;;;;;;;3.70;3.60;;;;;;;9.21;84.74;100714.16;4429443;32;20065;-72
2021/05/18 03:00:36;;;;;;;3.90;3.70;;;;;;;9.20;85.45;100717.72;4433420;32;20072;-73
2021/05/18 03:03:02;;;;;;;3.60;3.50;;;;;;;9.20;84.87;100717.72;4412372;32;20745;-71
2021/05/18 03:05:28;;;;;;;3.50;3.40;;;;;;;9.19;85.32;100727.31;4428303;32;20085;-72
2021/05/18 03:07:53;;;;;;;3.65;3.55;;;;;;;9.19;85.04;100714.22;4427943;32;20068;-72
2021/05/18 03:10:19;;;;;;;3.67;3.58;;;;;;;9.17;86.41;100717.84;4427002;32;20460;-73
2021/05/18 03:12:44;;;;;;;3.70;3.60;;;;;;;9.16;86.03;100718.75;4436606;32;20710;-73
2021/05/18 03:15:10;;;;;;;3.53;3.40;;;;;;;8.07;86.11;100551.81;4432205;32;20113;-71
2021/05/18 03:17:36;;;;;;;3.60;3.50;;;;;;;9.10;86.49;100714.66;4426694;32;20064;-71
2021/05/18 03:20:04;;;;;;;3.60;3.50;;;;;;;9.11;85.85;100710.28;4433553;32;20160;-73
2021/05/18 03:22:29;;;;;;;3.60;3.50;;;;;;;9.09;86.57;100712.94;4433100;32;20203;-72
2021/05/18 03:24:55;;;;;;;3.55;3.45;;;;;;;9.02;85.75;100701.09;4438142;32;20102;-73
2021/05/18 03:27:20;;;;;;;3.50;3.40;;;;;;;9.10;86.46;100716.41;4411009;32;20083;-73
2021/05/18 03:29:48;;;;;;;3.92;3.72;;;;;;;9.09;86.04;100718.19;4431859;32;20862;-72
2021/05/18 03:34:58;;;;;;;3.65;3.55;;;;;;;9.12;87.16;100712.81;4434014;32;20144;-73
2021/05/18 03:37:35;;;;;;;4.32;4.12;;;;;;;9.14;87.27;100710.12;4413470;32;20060;-73
2021/05/18 03:40:05;;;;;;;3.97;3.80;;;;;;;9.13;86.30;100719.75;4425881;32;20187;-72
2021/05/18 03:42:37;;;;;;;4.10;3.90;;;;;;;9.10;86.84;100709.44;4412539;32;20085;-73
2021/05/18 03:45:21;;;;;;;3.40;3.30;;;;;;;9.16;86.92;100723.97;4429596;32;20501;-71
2021/05/18 04:04:05;;;;;;;3.60;3.50;;;;;;;9.25;85.71;100735.81;4420429;32;20171;-71
2021/05/18 04:17:26;;;;;;;3.75;3.62;;;;;;;9.28;86.51;100736.53;4431745;32;20153;-68
2021/05/18 04:22:57;;;;;;;4.03;3.83;;;;;;;9.36;86.59;100739.66;4431889;32;20148;-72
2021/05/18 04:38:53;;;;;;;3.60;3.50;;;;;;;9.50;85.21;100741.63;4430591;32;20075;-71
2021/05/18 04:41:28;;;;;;;3.80;3.70;;;;;;;9.53;85.63;100744.09;4420438;32;20075;-70
2021/05/18 04:50:25;;;;;;;3.85;3.70;;;;;;;9.55;85.88;100744.03;4434773;32;20099;-72
2021/05/18 04:52:21;;;;;;;3.80;3.60;;;;;;;9.63;85.55;100757.59;4420060;32;20072;-72
2021/05/18 05:00:19;;;;;;;4.12;3.92;;;;;;;9.56;85.83;100761.44;4432360;32;20157;-70
2021/05/18 05:08:12;;;;;;;4.18;3.97;;;;;;;9.70;84.81;100766.88;4416677;32;20911;-70
2021/05/18 05:15:32;;;;;;;4.32;4.12;;;;;;;9.76;85.41;100776.22;4431474;32;20079;-66
2021/05/18 05:17:59;;;;;;;3.90;3.70;;;;;;;9.83;84.92;100771.53;4413558;32;20103;-68
2021/05/18 05:20:25;;;;;;;4.30;4.10;;;;;;;9.82;84.33;100778.53;4416127;32;20088;-67
2021/05/18 05:22:50;;;;;;;3.60;3.50;;;;;;;9.89;84.44;100771.25;4413623;32;20084;-67
2021/05/18 05:25:15;;;;;;;3.62;3.53;;;;;;;9.75;85.22;100732.59;4419997;32;20498;-68
2021/05/18 05:27:41;;;;;;;3.60;3.50;;;;;;;10.00;84.62;100774.19;4414786;32;20065;-71
2021/05/18 05:30:07;;;;;;;3.70;3.60;;;;;;;10.04;84.53;100767.03;4419604;32;20126;-70
2021/05/18 05:32:32;;;;;;;3.70;3.60;;;;;;;10.07;84.01;100778.22;4416355;32;20144;-70
2021/05/18 05:34:58;;;;;;;3.80;3.70;;;;;;;10.14;83.90;100779.63;4432487;32;20496;-73
2021/05/18 05:37:23;;;;;;;3.50;3.40;;;;;;;10.15;83.75;100780.47;4417200;32;20129;-71
2021/05/18 05:39:48;;;;;;;4.30;4.10;;;;;;;10.12;83.32;100785.84;4429200;32;20064;-69
2021/05/18 05:42:15;;;;;;;4.20;4.00;;;;;;;10.17;83.92;100781.25;4417837;32;20079;-71
2021/05/18 05:44:40;;;;;;;4.10;3.90;;;;;;;10.27;83.79;100782.47;4431988;32;20920;-68
2021/05/18 05:47:06;;;;;;;3.60;3.50;;;;;;;10.22;83.73;100781.84;4431317;32;20091;-72
2021/05/18 05:49:31;;;;;;;4.45;4.25;;;;;;;10.03;82.92;100723.38;4417597;32;20075;-70
2021/05/18 05:51:56;;;;;;;3.80;3.67;;;;;;;10.44;82.58;100781.66;4435444;32;20084;-71
2021/05/18 05:54:23;;;;;;;3.40;3.30;;;;;;;10.54;83.09;100792.53;4432772;32;20917;-67
2021/05/18 05:56:48;;;;;;;3.60;3.50;;;;;;;10.72;83.05;100782.87;4417031;32;20322;-74
2021/05/18 05:59:17;;;;;;;3.55;3.45;;;;;;;10.93;82.55;100784.41;4415347;32;20927;-71
2021/05/18 06:01:42;;;;;;;3.78;3.67;;;;;;;11.13;82.35;100785.13;4416151;32;20079;-71
2021/05/18 06:04:08;;;;;;;3.95;3.75;;;;;;;11.21;80.83;100792.63;4415312;32;20075;-73
2021/05/18 06:06:33;;;;;;;3.78;3.67;;;;;;;10.95;80.34;100797.47;4418201;32;20544;-70
2021/05/18 06:08:58;;;;;;;3.80;3.70;;;;;;;10.87;81.31;100789.13;4414799;32;20084;-71
2021/05/18 06:11:33;;;;;;;3.67;3.58;;;;;;;10.82;81.53;100765.72;4417815;32;20056;-71
2021/05/18 06:16:54;;;;;;;3.80;3.70;;;;;;;10.95;80.60;100773.81;4430674;32;20068;-71
2021/05/18 06:36:49;;;;;;;4.28;4.07;;;;;;;11.53;79.13;100810.13;4433276;32;20133;-71
2021/05/18 06:41:12;;;;;;;4.50;4.30;;;;;;;11.25;80.62;100813.37;4438007;32;20124;-70
2021/05/18 06:46:17;;;;;;;4.15;3.95;;;;;;;11.51;80.09;100806.72;4425938;32;20072;-73
2021/05/18 06:48:42;;;;;;;4.45;4.22;;;;;;;11.08;79.77;100763.50;4424389;32;20060;-75
2021/05/18 06:51:08;;;;;;;4.00;3.80;;;;;;;11.44;79.91;100823.75;4412759;32;20784;-74
2021/05/18 06:53:33;;;;;;;3.92;3.75;;;;;;;10.70;80.23;100743.59;4418551;32;20076;-73
2021/05/18 06:56:00;;;;;;;4.40;4.20;;;;;;;11.18;80.06;100830.37;4428504;32;20067;-75
2021/05/18 07:01:03;;;;;;;4.07;3.90;;;;;;;11.01;79.67;100826.03;4441371;32;20680;-73
2021/05/18 07:03:34;;;;;;;4.53;4.25;;;;;;;11.07;80.04;100838.84;4417783;32;20083;-73
2021/05/18 07:08:57;;;;;;;3.80;3.70;;;;;;;11.40;79.03;100837.13;4400680;32;20082;-75
2021/05/18 07:11:23;;;;;;;3.70;3.60;;;;;;;11.55;79.58;100838.94;4413521;32;20064;-73
2021/05/18 07:13:48;;;;;;;4.30;4.10;;;;;;;11.58;78.31;100844.88;4418178;32;20090;-76
2021/05/18 07:16:13;;;;;;;3.90;3.80;;;;;;;11.52;79.35;100855.72;4409618;32;20774;-76
2021/05/18 07:18:39;;;;;;;4.10;3.90;;;;;;;11.62;78.69;100842.09;4429194;32;20092;-76
2021/05/18 07:21:04;;;;;;;4.40;4.20;;;;;;;11.65;78.60;100852.44;4428869;32;20256;-75
2021/05/18 07:23:29;;;;;;;4.03;3.83;;;;;;;11.81;77.43;100857.69;4417585;32;20117;-76
2021/05/18 07:25:55;;;;;;;4.10;3.90;;;;;;;12.03;76.66;100852.12;4417747;32;20090;-76
2021/05/18 07:28:20;;;;;;;3.95;3.80;;;;;;;12.19;75.97;100858.25;4416437;32;20072;-74
2021/05/18 07:30:46;;;;;;;4.20;4.00;;;;;;;11.91;76.84;100857.16;4416515;32;20170;-74
2021/05/18 07:33:11;;;;;;;4.53;4.32;;;;;;;11.92;76.14;100858.00;4411161;32;20090;-70
2021/05/18 07:35:37;;;;;;;4.40;4.20;;;;;;;12.13;76.10;100861.22;4416409;32;20936;-75
2021/05/18 07:38:03;;;;;;;3.80;3.70;;;;;;;12.41;75.77;100859.63;4418764;32;20068;-74
2021/05/18 07:40:29;;;;;;;4.10;3.90;;;;;;;12.38;73.98;100858.88;4415028;32;20068;-74
2021/05/18 07:42:54;;;;;;;4.10;3.90;;;;;;;12.67;74.70;100856.38;4415077;32;20872;-69
2021/05/18 07:45:22;;;;;;;4.60;4.30;;;;;;;12.71;74.09;100855.25;4417849;32;20136;-71
2021/05/18 07:47:47;;;;;;;4.30;4.10;;;;;;;12.96;74.53;100859.06;4415124;32;20073;-74
2021/05/18 07:50:18;;;;;;;4.30;4.10;;;;;;;13.17;71.36;100851.66;4417025;32;20086;-71
2021/05/18 08:01:11;;;;;;;4.07;3.87;;;;;;;13.59;72.70;100850.00;4432386;32;20137;-73
2021/05/18 08:06:21;;;;;;;4.35;4.15;;;;;;;13.99;67.22;100844.81;4435006;32;20568;-73
2021/05/18 08:08:47;;;;;;;4.53;4.32;;;;;;;14.12;68.88;100845.72;4416268;32;20067;-72
2021/05/18 08:11:12;;;;;;;4.45;4.25;;;;;;;14.16;68.22;100851.66;4414454;32;20510;-74
2021/05/18 08:13:37;;;;;;;4.55;4.35;;;;;;;14.34;68.00;100841.69;4416761;32;20060;-76
2021/05/18 09:28:44;;;;;;;4.57;4.35;;;;;;;13.79;65.49;100843.47;4427634;32;20156;-73
2021/05/18 10:38:47;;;;;;;4.55;4.35;;;;;;;15.77;51.50;100833.75;4452887;32;20068;-71
2021/05/18 10:41:19;;;;;;;4.50;4.30;;;;;;;16.01;51.63;100837.25;4434712;32;20083;-72
2021/05/18 10:43:57;;;;;;;5.03;4.82;;;;;;;14.94;54.37;100830.63;4412015;32;20098;-73
2021/05/18 10:46:24;;;;;;;4.60;4.40;;;;;;;14.78;55.75;100853.78;4439653;32;20126;-74
2021/05/18 10:48:53;;;;;;;4.70;4.50;;;;;;;14.76;57.29;100855.66;4413901;32;20548;-73
2021/05/18 10:51:27;;;;;;;4.55;4.35;;;;;;;14.98;56.89;100851.59;4416923;32;20756;-72
2021/05/18 10:54:19;;;;;;;4.87;4.62;;;;;;;15.76;53.19;100856.72;4429753;32;21057;-71
2021/05/18 10:56:59;;;;;;;4.65;4.45;;;;;;;16.04;51.61;100837.03;4446344;32;20123;-73
2021/05/18 10:59:54;;;;;;;4.97;4.78;;;;;;;16.17;49.00;100841.44;4419948;32;20089;-73
2021/05/18 11:02:30;;;;;;;4.90;4.70;;;;;;;16.20;49.80;100844.72;4434765;32;20095;-73
2021/05/18 11:04:55;;;;;;;4.30;4.10;;;;;;;16.19;50.74;100858.91;4426553;32;20084;-73
2021/05/18 11:07:22;;;;;;;4.60;4.40;;;;;;;16.17;52.30;100859.97;4437131;32;20099;-75
2021/05/18 11:09:48;;;;;;;4.85;4.65;;;;;;;15.52;54.69;100859.28;4412420;32;20684;-74
2021/05/18 11:12:18;;;;;;;4.70;4.50;;;;;;;15.09;55.51;100862.25;4419265;32;20726;-72
2021/05/18 11:14:44;;;;;;;4.30;4.10;;;;;;;14.74;56.58;100870.78;4412034;32;20127;-71
2021/05/18 11:17:17;;;;;;;4.57;4.37;;;;;;;14.91;55.93;100867.84;4425457;32;20076;-72
2021/05/18 11:19:51;;;;;;;4.50;4.30;;;;;;;14.67;55.58;100853.63;4429520;32;20483;-70
2021/05/18 11:22:19;;;;;;;4.62;4.43;;;;;;;14.69;56.30;100862.28;4433220;32;20160;-71
2021/05/18 11:24:49;;;;;;;4.40;4.20;;;;;;;14.66;55.76;100846.66;4416719;32;20210;-75
2021/05/18 11:27:25;;;;;;;4.60;4.40;;;;;;;13.94;55.96;100747.50;4414243;32;20756;-75
2021/05/18 11:29:50;;;;;;;4.40;4.20;;;;;;;14.72;56.66;100852.38;4415076;32;20098;-75
2021/05/18 11:32:15;;;;;;;4.35;4.15;;;;;;;14.87;55.85;100849.66;4414009;32;20080;-70
2021/05/18 11:34:58;;;;;;;4.45;4.25;;;;;;;15.59;56.05;100814.72;4431444;32;20917;-70
2021/05/18 11:37:27;;;;;;;4.40;4.20;;;;;;;15.68;55.07;100848.47;4423553;32;20180;-70
2021/05/18 11:40:12;;;;;;;4.32;4.12;;;;;;;16.20;54.73;100843.87;4420489;32;20162;-71
2021/05/18 11:42:38;;;;;;;4.50;4.30;;;;;;;16.98;52.79;100845.97;4422771;32;20075;-74
2021/05/18 11:45:16;;;;;;;4.50;4.30;;;;;;;17.02;52.49;100703.38;4412066;32;20575;-74
2021/05/18 11:47:42;;;;;;;4.82;4.62;;;;;;;18.37;49.34;100834.97;4417987;32;20118;-73
2021/05/18 11:50:22;;;;;;;4.78;4.57;;;;;;;17.92;49.10;100791.69;4418071;32;20067;-76
2021/05/18 11:52:48;;;;;;;4.72;4.53;;;;;;;17.34;48.47;100791.88;4416024;32;20069;-73
2021/05/18 11:55:27;;;;;;;4.65;4.45;;;;;;;17.49;49.32;100839.38;4418822;32;20071;-75
2021/05/18 11:57:53;;;;;;;4.75;4.55;;;;;;;17.25;50.58;100836.84;4429890;32;20089;-75
2021/05/18 12:00:23;;;;;;;4.57;4.37;;;;;;;17.23;49.05;100836.94;4429929;32;20084;-73
2021/05/18 12:03:07;;;;;;;4.70;4.50;;;;;;;18.06;49.23;100834.81;4423230;32;20068;-75
2021/05/18 12:05:33;;;;;;;4.40;4.20;;;;;;;18.52;48.37;100831.91;4424729;32;21255;-72
2021/05/18 12:07:59;;;;;;;4.62;4.43;;;;;;;18.43;48.82;100835.31;4423345;32;20130;-73
2021/05/18 12:10:31;;;;;;;4.82;4.62;;;;;;;18.58;50.24;100832.34;4425119;32;20092;-73
2021/05/18 12:12:57;;;;;;;4.57;4.37;;;;;;;18.13;49.37;100831.56;4410565;32;20110;-73
2021/05/18 12:15:23;;;;;;;4.95;4.75;;;;;;;17.92;50.72;100828.84;4428871;32;20079;-74
2021/05/18 12:17:51;;;;;;;4.97;4.78;;;;;;;18.20;49.79;100823.06;4413813;32;20188;-75
2021/05/18 12:20:17;;;;;;;4.90;4.70;;;;;;;18.15;48.82;100831.44;4429258;32;20186;-70
2021/05/18 12:22:43;;;;;;;5.22;5.03;;;;;;;17.82;48.51;100832.31;4409490;32;20460;-75
2021/05/18 12:25:09;;;;;;;4.70;4.50;;;;;;;17.61;49.31;100834.91;4419566;32;20076;-73
2021/05/18 12:27:44;;;;;;;5.00;4.70;;;;;;;17.14;51.16;100830.56;4410902;32;20084;-72
2021/05/18 12:30:10;;;;;;;4.65;4.45;;;;;;;16.74;51.30;100833.59;4424207;32;20120;-71
2021/05/18 12:32:45;;;;;;;4.75;4.55;;;;;;;16.58;51.99;100829.56;4417812;32;20072;-71
2021/05/18 12:35:18;;;;;;;4.60;4.40;;;;;;;16.71;53.65;100840.94;4421668;32;20912;-71
2021/05/18 12:37:51;;;;;;;4.85;4.65;;;;;;;16.44;54.94;100833.28;4429811;32;20065;-71
2021/05/18 12:40:25;;;;;;;4.50;4.30;;;;;;;16.05;56.33;100859.06;4424936;32;20071;-69
2021/05/18 12:42:51;;;;;;;4.60;4.40;;;;;;;14.76;49.30;100839.81;4442585;32;20954;-70
2021/05/18 12:45:16;;;;;;;6.45;6.15;;;;;;;14.43;51.58;100856.91;4407470;32;20076;-71
2021/05/18 12:47:42;;;;;;;4.50;4.30;;;;;;;14.44;53.05;100857.78;4443826;32;20606;-70
2021/05/18 12:50:12;;;;;;;5.00;4.70;;;;;;;13.82;57.12;100861.72;4414150;32;20056;-71
2021/05/18 12:52:42;;;;;;;4.45;4.25;;;;;;;13.42;60.32;100866.84;4416991;32;20082;-70
2021/05/18 12:55:27;;;;;;;4.60;4.40;;;;;;;12.83;64.29;100871.25;4410987;32;21002;-70
2021/05/18 12:57:56;;;;;;;4.32;4.12;;;;;;;12.24;65.24;100782.50;4434995;32;20185;-71
2021/05/18 13:00:23;;;;;;;6.12;5.82;;;;;;;12.49;66.95;100870.59;4415505;32;20098;-68
2021/05/18 13:02:49;;;;;;;4.50;4.30;;;;;;;12.61;67.50;100879.56;4411631;32;20206;-70
2021/05/18 13:05:28;;;;;;;4.35;4.15;;;;;;;12.25;69.91;100889.47;4421060;32;20064;-70
2021/05/18 13:08:08;;;;;;;4.22;4.03;;;;;;;12.17;69.01;100895.16;4413873;32;20091;-70
2021/05/18 13:13:25;;;;;;;4.28;4.07;;;;;;;12.65;68.11;100899.50;4415754;32;20157;-73
2021/05/18 13:15:51;;;;;;;4.10;3.90;;;;;;;12.85;67.47;100896.59;4411775;32;20096;-72
2021/05/18 13:18:17;;;;;;;4.40;4.20;;;;;;;12.95;67.37;100895.09;4406653;32;20072;-72
2021/05/18 13:20:45;;;;;;;4.45;4.25;;;;;;;13.11;68.16;100892.41;4419874;32;20636;-69
2021/05/18 13:23:20;;;;;;;4.50;4.30;;;;;;;13.18;68.81;100893.72;4444717;32;20915;-70
2021/05/18 13:28:29;;;;;;;4.20;4.00;;;;;;;12.93;71.06;100901.41;4434356;32;20093;-70
2021/05/18 13:30:54;;;;;;;4.20;4.00;;;;;;;13.13;70.39;100885.25;4412010;32;20834;-70
2021/05/18 13:33:20;;;;;;;4.50;4.30;;;;;;;13.31;70.67;100883.34;4428472;32;20072;-70
2021/05/18 13:35:45;;;;;;;4.37;4.18;;;;;;;13.41;71.52;100867.81;4412222;32;20129;-71
2021/05/18 13:38:11;;;;;;;4.40;4.20;;;;;;;13.89;70.09;100878.00;4418163;32;20103;-70
2021/05/18 13:40:37;;;;;;;5.30;5.00;;;;;;;14.36;71.77;100884.69;4415321;32;20096;-71
2021/05/18 13:43:02;;;;;;;4.40;4.20;;;;;;;15.03;67.08;100882.00;4420351;32;21221;-67
2021/05/18 13:45:28;;;;;;;4.70;4.50;;;;;;;15.69;65.34;100874.78;4409998;32;20072;-68
2021/05/18 13:47:55;;;;;;;4.50;4.30;;;;;;;16.40;61.32;100877.69;4409440;32;20096;-72
2021/05/18 13:50:24;;;;;;;4.60;4.40;;;;;;;16.89;56.20;100874.00;4398936;32;20828;-70
2021/05/18 13:52:49;;;;;;;4.70;4.40;;;;;;;17.06;54.00;100880.69;4403877;32;20902;-70
2021/05/18 13:55:15;;;;;;;4.60;4.40;;;;;;;16.91;56.01;100882.69;4408167;32;20073;-73
2021/05/18 13:57:40;;;;;;;4.80;4.60;;;;;;;17.07;51.63;100884.19;4403274;32;20140;-68
2021/05/18 14:00:09;;;;;;;4.57;4.37;;;;;;;16.45;50.48;100890.56;4407401;32;20177;-68
2021/05/18 14:02:36;;;;;;;4.95;4.75;;;;;;;16.24;50.86;100900.94;4405033;32;20170;-67
2021/05/18 14:05:02;;;;;;;4.60;4.40;;;;;;;16.33;51.95;100895.81;4413981;32;20097;-67
2021/05/18 14:10:18;;;;;;;4.53;4.32;;;;;;;16.32;54.51;100883.53;4433765;32;20077;-68
2021/05/18 14:12:44;;;;;;;4.90;4.70;;;;;;;15.67;53.23;100881.16;4411948;32;20083;-70
2021/05/18 14:15:10;;;;;;;5.00;4.70;;;;;;;15.57;58.17;100880.94;4404471;32;20999;-72
2021/05/18 14:17:35;;;;;;;4.57;4.37;;;;;;;15.33;60.70;100876.44;4420011;32;20069;-72
2021/05/18 14:20:00;;;;;;;4.90;4.70;;;;;;;15.40;61.01;100876.84;4412542;32;20673;-71
2021/05/18 14:22:26;;;;;;;4.97;4.78;;;;;;;15.51;60.47;100882.22;4414439;32;20100;-72
2021/05/18 14:27:28;;;;;;;5.57;5.28;;;;;;;15.27;61.42;100873.34;4420861;32;20873;-71
2021/05/18 14:29:54;;;;;;;4.62;4.43;;;;;;;15.30;61.75;100881.09;4412139;32;20083;-72
2021/05/18 14:32:19;;;;;;;4.75;4.55;;;;;;;15.05;61.44;100879.25;4409554;32;20069;-69
2021/05/18 14:34:45;;;;;;;4.70;4.50;;;;;;;14.91;63.29;100883.72;4411410;32;20086;-72
2021/05/18 14:37:11;;;;;;;4.87;4.68;;;;;;;14.74;63.63;100890.09;4411173;32;20082;-71
2021/05/18 14:39:51;;;;;;;5.00;4.80;;;;;;;14.31;62.87;100839.25;4409719;32;20149;-71
2021/05/18 14:45:01;;;;;;;4.72;4.53;;;;;;;14.55;61.96;100887.81;4419375;32;20881;-72
2021/05/18 14:47:31;;;;;;;4.80;4.60;;;;;;;14.24;63.80;100883.69;4410494;32;20088;-71
2021/05/18 14:55:26;;;;;;;4.47;4.28;;;;;;;14.49;63.85;100895.28;4411716;32;20724;-72
2021/05/18 14:57:51;;;;;;;4.60;4.40;;;;;;;14.50;61.88;100900.47;4413246;32;20081;-73
2021/05/18 15:00:17;;;;;;;4.78;4.57;;;;;;;14.63;61.19;100846.84;4407468;32;20202;-71
2021/05/18 15:02:42;;;;;;;5.07;4.87;;;;;;;15.07;59.48;100888.78;4411844;32;20199;-71
2021/05/18 15:05:10;;;;;;;4.50;4.30;;;;;;;15.48;58.67;100879.81;4408172;32;20112;-72
2021/05/18 15:07:35;;;;;;;4.47;4.28;;;;;;;15.59;57.81;100879.03;4424991;32;20065;-72
2021/05/18 15:10:00;;;;;;;4.50;4.30;;;;;;;15.70;57.25;100880.94;4410013;32;20076;-69
2021/05/18 15:12:26;;;;;;;4.60;4.40;;;;;;;15.87;56.76;100879.75;4413083;32;20689;-70
2021/05/18 15:14:51;;;;;;;4.70;4.50;;;;;;;14.80;57.60;100755.91;4407844;32;20068;-70
2021/05/18 15:17:17;;;;;;;4.50;4.30;;;;;;;15.32;57.54;100882.66;4425084;32;20068;-73
2021/05/18 15:19:44;;;;;;;4.62;4.43;;;;;;;15.10;57.99;100885.09;4409564;32;20612;-74
2021/05/18 15:22:10;;;;;;;5.50;5.20;;;;;;;14.84;59.25;100892.97;4412099;32;20118;-74
2021/05/18 15:24:36;;;;;;;4.93;4.72;;;;;;;14.54;61.49;100890.56;4409587;32;21277;-72
2021/05/18 15:27:03;;;;;;;4.72;4.53;;;;;;;14.35;65.23;100894.41;4424562;32;20143;-72
2021/05/18 15:29:28;;;;;;;4.82;4.62;;;;;;;14.06;65.81;100901.53;4413919;32;20106;-75
2021/05/18 15:31:54;;;;;;;4.90;4.70;;;;;;;14.07;67.24;100897.97;4407425;32;20102;-70
2021/05/18 15:34:19;;;;;;;4.45;4.25;;;;;;;14.11;68.18;100895.97;4412649;32;20684;-69
2021/05/18 15:36:45;;;;;;;4.57;4.37;;;;;;;13.87;66.79;100916.84;4407732;32;20096;-69
2021/05/18 15:39:10;;;;;;;4.93;4.70;;;;;;;13.83;67.80;100913.56;4424957;32;20082;-69
2021/05/18 15:41:35;;;;;;;4.80;4.60;;;;;;;13.99;65.95;100925.78;4408958;32;20098;-68
2021/05/18 15:44:02;;;;;;;4.40;4.20;;;;;;;13.97;66.18;100931.13;4411995;32;20072;-72
2021/05/18 15:46:28;;;;;;;4.72;4.53;;;;;;;13.97;67.06;100939.06;4424400;32;20667;-73
2021/05/18 15:48:53;;;;;;;4.78;4.57;;;;;;;14.16;66.63;100936.97;4411348;32;20087;-73
2021/05/18 15:51:18;;;;;;;4.50;4.30;;;;;;;14.39;64.82;100945.19;4408611;32;20079;-68
2021/05/18 15:53:44;;;;;;;4.60;4.40;;;;;;;13.95;63.91;100909.28;4413193;32;20680;-70
2021/05/18 15:56:09;;;;;;;4.65;4.45;;;;;;;14.16;67.23;100950.16;4403386;32;20105;-69
2021/05/18 15:58:35;;;;;;;4.57;4.37;;;;;;;13.89;58.99;100952.75;4392046;32;20060;-72
2021/05/18 16:01:00;;;;;;;5.20;5.00;;;;;;;13.48;59.47;100957.91;4406074;32;20561;-69
2021/05/18 16:03:25;;;;;;;4.60;4.40;;;;;;;13.61;55.99;100960.62;4408837;32;20075;-74
2021/05/18 16:05:51;;;;;;;4.60;4.40;;;;;;;13.63;59.81;100950.84;4415253;32;20088;-68
2021/05/18 16:10:59;;;;;;;4.53;4.32;;;;;;;13.80;57.19;100955.09;4416232;32;20072;-74
2021/05/18 16:13:24;;;;;;;4.22;4.03;;;;;;;13.67;55.71;100960.25;4395674;32;21182;-70
2021/05/18 16:15:49;;;;;;;4.10;3.90;;;;;;;13.46;56.23;100952.72;4398452;32;20087;-75
2021/05/18 16:18:15;;;;;;;4.60;4.40;;;;;;;13.36;57.34;100944.50;4405960;32;20645;-68
2021/05/18 16:20:41;;;;;;;4.57;4.37;;;;;;;13.79;57.74;100946.34;4399444;32;20068;-70
2021/05/18 16:23:06;;;;;;;4.53;4.28;;;;;;;13.25;57.62;100764.19;4412706;32;20696;-70
2021/05/18 16:25:32;;;;;;;4.50;4.30;;;;;;;14.54;55.65;100928.37;4399551;32;20069;-69